createdAt,value
2023-03-12T00:01:47.182Z,0.20
2023-03-12T00:06:48.863Z,0.20
2023-03-12T00:11:50.628Z,0.20
2023-03-12T00:16:52.328Z,0.20
2023-03-12T00:21:54.022Z,0.10
2023-03-12T00:26:55.753Z,0.10
2023-03-12T00:31:57.424Z,0.10
2023-03-12T00:36:59.086Z,0.00
2023-03-12T00:42:01.399Z,0.00
2023-03-12T00:47:03.388Z,0.00
2023-03-12T00:52:05.509Z,0.00
2023-03-12T00:57:07.465Z,0.00
2023-03-12T01:02:09.552Z,-0.10
2023-03-12T01:07:11.242Z,-0.10
2023-03-12T01:12:12.904Z,-0.10
2023-03-12T01:17:14.859Z,-0.10
2023-03-12T01:22:16.578Z,-0.10
2023-03-12T01:27:18.323Z,-0.20
2023-03-12T01:32:20.209Z,-0.20
2023-03-12T01:37:21.940Z,-0.20
2023-03-12T01:42:23.620Z,-0.20
2023-03-12T01:47:26.261Z,-0.20
2023-03-12T01:52:31.975Z,-0.20
2023-03-12T01:57:52.014Z,-0.30
2023-03-12T02:02:59.731Z,-0.30
2023-03-12T02:08:01.814Z,-0.30
2023-03-12T02:13:03.603Z,-0.30
2023-03-12T02:18:11.361Z,-0.30
2023-03-12T02:23:17.222Z,-0.40
2023-03-12T02:28:21.793Z,-0.40
2023-03-12T02:33:23.557Z,-0.40
2023-03-12T02:38:41.666Z,-0.40
2023-03-12T02:43:47.259Z,-0.40
2023-03-12T02:48:49.356Z,-0.40
2023-03-12T02:53:54.798Z,-0.40
2023-03-12T02:58:56.630Z,-0.50
2023-03-12T03:03:58.332Z,-0.40
2023-03-12T03:09:00.108Z,-0.40
2023-03-12T03:14:03.921Z,-0.50
2023-03-12T03:19:06.034Z,-0.50
2023-03-12T03:24:07.938Z,-0.50
2023-03-12T03:29:09.633Z,-0.50
2023-03-12T03:34:11.386Z,-0.50
2023-03-12T03:39:13.148Z,-0.50
2023-03-12T03:44:14.851Z,-0.40
2023-03-12T03:49:16.972Z,-0.50
2023-03-12T03:54:19.190Z,-0.50
2023-03-12T03:59:20.848Z,-0.50
2023-03-12T04:04:22.859Z,-0.50
2023-03-12T04:09:24.921Z,-0.60
2023-03-12T04:14:26.675Z,-0.60
2023-03-12T04:19:28.446Z,-0.60
2023-03-12T04:24:30.736Z,-0.60
2023-03-12T04:29:32.422Z,-0.60
2023-03-12T04:34:34.515Z,-0.60
2023-03-12T04:39:48.274Z,-0.70
2023-03-12T04:44:52.649Z,-0.70
2023-03-12T04:49:54.338Z,-0.70
2023-03-12T04:54:56.125Z,-0.70
2023-03-12T04:59:57.905Z,-0.70
2023-03-12T05:04:59.569Z,-0.70
2023-03-12T05:10:01.248Z,-0.80
2023-03-12T05:15:03.115Z,-0.80
2023-03-12T05:20:06.295Z,-0.80
2023-03-12T05:25:08.735Z,-0.80
2023-03-12T05:30:11.068Z,-0.80
2023-03-12T05:35:12.949Z,-0.80
2023-03-12T05:40:14.753Z,-0.80
2023-03-12T05:45:20.545Z,-0.80
2023-03-12T05:50:23.213Z,-0.70
2023-03-12T05:55:25.085Z,-0.70
2023-03-12T06:00:26.803Z,-0.70
2023-03-12T06:05:28.513Z,-0.60
2023-03-12T06:10:30.282Z,-0.50
2023-03-12T06:15:32.030Z,-0.40
2023-03-12T06:20:33.773Z,-0.40
2023-03-12T06:25:35.495Z,-0.30
2023-03-12T06:30:37.239Z,-0.20
2023-03-12T06:35:38.965Z,0.20
2023-03-12T06:40:40.688Z,0.40
2023-03-12T06:45:42.366Z,0.70
2023-03-12T06:50:44.157Z,0.80
2023-03-12T06:55:46.445Z,0.90
2023-03-12T07:00:48.190Z,1.00
2023-03-12T07:05:51.437Z,1.10
2023-03-12T07:10:53.136Z,1.20
2023-03-12T07:15:55.121Z,1.40
2023-03-12T07:20:56.968Z,1.60
2023-03-12T07:25:58.658Z,1.80
2023-03-12T07:31:03.046Z,2.00
2023-03-12T07:36:05.333Z,2.20
2023-03-12T07:41:07.147Z,2.60
2023-03-12T07:46:08.924Z,2.80
2023-03-12T07:51:10.677Z,3.00
2023-03-12T07:56:12.525Z,3.20
2023-03-12T08:01:14.830Z,3.50
2023-03-12T08:06:17.372Z,3.70
2023-03-12T08:11:19.210Z,3.80
2023-03-12T08:16:24.546Z,3.90
2023-03-12T08:21:26.363Z,4.20
2023-03-12T08:26:29.685Z,4.40
2023-03-12T08:31:32.098Z,4.50
2023-03-12T08:36:33.988Z,4.70
2023-03-12T08:41:35.707Z,4.80
2023-03-12T08:46:37.497Z,5.10
2023-03-12T08:51:39.290Z,5.40
2023-03-12T08:56:44.424Z,5.60
2023-03-12T09:01:47.710Z,5.80
2023-03-12T09:06:49.421Z,6.10
2023-03-12T09:11:54.428Z,6.30
2023-03-12T09:16:56.790Z,6.30
2023-03-12T09:21:58.924Z,6.40
2023-03-12T09:27:02.088Z,6.30
2023-03-12T09:32:05.911Z,6.20
2023-03-12T09:37:07.788Z,6.30
2023-03-12T09:42:20.565Z,6.60
2023-03-12T09:47:29.902Z,6.80
2023-03-12T09:52:39.432Z,7.00
2023-03-12T09:57:42.040Z,7.20
2023-03-12T10:03:05.678Z,7.40
2023-03-12T10:08:25.574Z,7.60
2023-03-12T10:13:38.272Z,7.60
2023-03-12T10:19:04.301Z,8.00
2023-03-12T10:24:35.291Z,8.00
2023-03-12T10:29:43.366Z,7.90
2023-03-12T10:34:47.386Z,7.90
2023-03-12T10:40:02.157Z,8.00
2023-03-12T10:45:09.995Z,7.90
2023-03-12T10:50:21.828Z,8.40
2023-03-12T10:55:29.819Z,8.50
2023-03-12T11:00:32.850Z,8.60
2023-03-12T11:05:51.753Z,8.60
2023-03-12T11:10:55.582Z,8.90
2023-03-12T11:16:00.722Z,8.50
2023-03-12T11:21:13.133Z,8.10
2023-03-12T11:26:26.401Z,7.90
2023-03-12T11:31:37.860Z,8.00
2023-03-12T11:36:45.581Z,8.20
2023-03-12T11:42:14.686Z,8.60
2023-03-12T11:47:36.324Z,8.80
2023-03-12T11:53:09.014Z,9.40
2023-03-12T11:58:23.594Z,9.70
2023-03-12T12:03:52.621Z,9.70
2023-03-12T12:09:21.031Z,9.70
2023-03-12T12:14:51.934Z,9.80
2023-03-12T12:19:53.651Z,9.60
2023-03-12T12:25:07.330Z,9.60
2023-03-12T12:30:22.909Z,9.60
2023-03-12T12:35:33.549Z,9.60
2023-03-12T12:40:42.936Z,9.80
2023-03-12T12:45:47.943Z,9.50
2023-03-12T12:50:51.990Z,9.40
2023-03-12T12:56:20.446Z,9.30
2023-03-12T13:01:22.685Z,9.50
2023-03-12T13:06:29.937Z,9.40
2023-03-12T13:11:46.189Z,9.10
2023-03-12T13:16:48.509Z,9.00
2023-03-12T13:22:08.264Z,8.90
2023-03-12T13:27:38.747Z,8.80
2023-03-12T13:33:03.976Z,8.90
2023-03-12T13:38:40.155Z,8.50
2023-03-12T13:43:49.075Z,8.20
2023-03-12T13:48:51.193Z,8.20
2023-03-12T13:54:00.408Z,8.00
2023-03-12T13:59:04.978Z,7.80
2023-03-12T14:04:20.937Z,8.00
2023-03-12T14:09:31.858Z,8.30
2023-03-12T14:14:55.632Z,8.30
2023-03-12T14:20:18.870Z,8.20
2023-03-12T14:25:48.446Z,7.90
2023-03-12T14:30:56.242Z,7.90
2023-03-12T14:36:06.509Z,7.90
2023-03-12T14:41:15.171Z,7.80
2023-03-12T14:46:20.103Z,7.70
2023-03-12T14:51:26.962Z,7.70
2023-03-12T14:56:32.979Z,7.90
2023-03-12T15:01:39.533Z,8.00
2023-03-12T15:06:51.122Z,7.90
2023-03-12T15:12:03.421Z,7.70
2023-03-12T15:17:06.405Z,7.60
2023-03-12T15:22:18.468Z,7.60
2023-03-12T15:27:23.444Z,7.50
2023-03-12T15:32:26.812Z,7.60
2023-03-12T15:37:33.726Z,7.50
2023-03-12T15:42:41.339Z,7.50
2023-03-12T15:47:45.230Z,7.50
2023-03-12T15:53:25.697Z,7.50
2023-03-12T15:58:41.853Z,7.40
2023-03-12T16:03:45.567Z,7.40
2023-03-12T16:08:52.504Z,7.40
2023-03-12T16:14:18.800Z,7.30
2023-03-12T16:19:22.507Z,7.30
2023-03-12T16:24:24.219Z,7.30
2023-03-12T16:29:33.910Z,7.30
2023-03-12T16:34:35.579Z,7.30
2023-03-12T16:39:37.416Z,7.30
2023-03-12T16:44:41.504Z,7.20
2023-03-12T16:49:44.110Z,7.20
2023-03-12T16:54:48.453Z,7.20
2023-03-12T16:59:50.390Z,7.20
2023-03-12T17:04:52.824Z,7.20
2023-03-12T17:09:54.534Z,7.20
2023-03-12T17:14:57.751Z,7.20
2023-03-12T17:20:02.493Z,7.20
2023-03-12T17:25:06.128Z,7.20
2023-03-12T17:30:08.836Z,7.20
2023-03-12T17:35:10.930Z,7.20
2023-03-12T17:40:13.091Z,7.20
2023-03-12T17:45:14.949Z,7.20
2023-03-12T17:50:17.251Z,7.20
2023-03-12T17:55:19.002Z,7.10
2023-03-12T18:00:22.906Z,7.10
2023-03-12T18:05:25.041Z,7.10
2023-03-12T18:10:26.739Z,7.10
2023-03-12T18:15:28.586Z,7.20
2023-03-12T18:20:38.562Z,7.20
2023-03-12T18:25:41.151Z,7.30
2023-03-12T18:30:46.040Z,7.30
2023-03-12T18:35:47.837Z,7.40
2023-03-12T18:40:50.371Z,7.40
2023-03-12T18:45:52.042Z,7.40
2023-03-12T18:50:54.097Z,7.50
2023-03-12T18:55:59.613Z,7.40
2023-03-12T19:01:01.783Z,7.50
2023-03-12T19:06:10.758Z,7.60
2023-03-12T19:11:14.877Z,7.50
2023-03-12T19:16:18.707Z,7.50
2023-03-12T19:21:20.449Z,7.50
2023-03-12T19:26:22.429Z,7.50
2023-03-12T19:31:25.263Z,7.50
2023-03-12T19:36:27.024Z,7.50
2023-03-12T19:41:28.795Z,7.60
2023-03-12T19:46:31.223Z,7.60
2023-03-12T19:51:32.985Z,7.60
2023-03-12T19:56:34.785Z,7.60
2023-03-12T20:01:37.990Z,7.60
2023-03-12T20:06:39.946Z,7.70
2023-03-12T20:11:41.733Z,7.70
2023-03-12T20:16:43.543Z,7.70
2023-03-12T20:21:45.521Z,7.80
2023-03-12T20:26:47.485Z,7.70
2023-03-12T20:31:49.301Z,7.70
2023-03-12T20:36:51.108Z,7.70
2023-03-12T20:41:52.824Z,7.70
2023-03-12T20:46:54.487Z,7.60
2023-03-12T20:51:56.173Z,7.70
2023-03-12T20:56:58.721Z,7.80
2023-03-12T21:02:00.638Z,7.80
2023-03-12T21:07:02.389Z,7.80
2023-03-12T21:12:04.414Z,7.80
2023-03-12T21:17:06.431Z,7.80
2023-03-12T21:22:09.073Z,7.90
2023-03-12T21:27:12.932Z,7.80
2023-03-12T21:32:15.880Z,7.80
2023-03-12T21:37:17.809Z,7.80
2023-03-12T21:42:21.259Z,7.70
2023-03-12T21:47:23.411Z,7.70
2023-03-12T21:52:25.316Z,7.70
2023-03-12T21:57:28.713Z,7.60
2023-03-12T22:02:31.739Z,7.50
2023-03-12T22:07:33.600Z,7.50
2023-03-12T22:12:35.327Z,7.50
2023-03-12T22:17:37.062Z,7.50
2023-03-12T22:22:38.744Z,7.50
2023-03-12T22:27:40.543Z,7.60
2023-03-12T22:32:42.286Z,7.60
2023-03-12T22:37:45.256Z,7.60
2023-03-12T22:42:51.415Z,7.60
2023-03-12T22:47:53.095Z,7.60
2023-03-12T22:52:54.798Z,7.50
2023-03-12T22:57:56.533Z,7.50
2023-03-12T23:02:58.225Z,7.60
2023-03-12T23:07:59.875Z,7.60
2023-03-12T23:13:01.547Z,7.70
2023-03-12T23:18:03.280Z,7.60
2023-03-12T23:23:05.086Z,7.70
2023-03-12T23:28:06.844Z,7.70
2023-03-12T23:33:08.510Z,7.70
2023-03-12T23:38:10.204Z,7.80
2023-03-12T23:43:12.538Z,7.80
2023-03-12T23:48:14.330Z,7.90
2023-03-12T23:53:16.030Z,7.80
2023-03-12T23:58:17.772Z,7.80
